Time,TemperatureF,DewpointF,PressureIn,WindDirection,WindDirectionDegrees,WindSpeedMPH,WindSpeedGustMPH,Humidity,HourlyPrecipIn,Conditions,Clouds,dailyrainin,SoftwareType,DateUTC
2013-12-07 00:01:00,31.7,30.7,29.80,NNW,327,2.1,3.0,96,0.02,RA,SCT,0.00,WeatherDisplay:10.37,2013-12-07 05:01:00,
2013-12-07 00:02:00,31.6,30.6,29.80,NNW,338,3.3,5.0,96,0.02,RA,SCT,0.00,WeatherDisplay:10.37,2013-12-07 05:02:00,
2013-12-07 00:07:00,31.5,30.5,29.80,NNW,329,2.0,4.6,96,0.01,RA,SCT,0.00,WeatherDisplay:10.37,2013-12-07 05:07:00,
2013-12-07 00:12:00,31.4,30.4,29.79,NNW,329,1.5,3.5,96,0.01,CLR,SCT,0.00,WeatherDisplay:10.37,2013-12-07 05:12:00,
2013-12-07 00:17:00,31.4,30.4,29.79,NW,326,1.0,2.3,96,0.01,CLR,SCT,0.00,WeatherDisplay:10.37,2013-12-07 05:17:00,
2013-12-07 00:22:00,31.4,30.4,29.79,North,349,1.3,3.5,96,0.01,CLR,SCT,0.00,WeatherDisplay:10.37,2013-12-07 05:22:00,
2013-12-07 00:27:00,31.4,30.4,29.79,North,349,0.5,2.3,96,0.01,CLR,SCT,0.00,WeatherDisplay:10.37,2013-12-07 05:27:00,
2013-12-07 00:32:00,31.3,30.3,29.79,NW,306,1.0,3.5,96,0.01,CLR,SCT,0.00,WeatherDisplay:10.37,2013-12-07 05:32:00,
2013-12-07 00:37:00,31.2,30.2,29.78,NNW,343,1.1,3.5,96,0.00,CLR,SCT,0.00,WeatherDisplay:10.37,2013-12-07 05:37:00,
2013-12-07 00:42:00,31.0,30.0,29.78,NNW,344,3.4,4.0,96,0.00,CLR,SCT,0.00,WeatherDisplay:10.37,2013-12-07 05:42:00,
2013-12-07 00:47:00,31.0,30.0,29.78,NNW,346,2.2,3.5,96,0.00,CLR,SCT,0.00,WeatherDisplay:10.37,2013-12-07 05:47:00,
2013-12-07 00:52:00,31.0,30.0,29.78,NW,321,1.3,2.3,96,0.00,CLR,SCT,0.00,WeatherDisplay:10.37,2013-12-07 05:52:00,
2013-12-07 00:57:00,31.0,30.0,29.77,NW,323,1.5,2.3,96,0.00,CLR,SCT,0.00,WeatherDisplay:10.37,2013-12-07 05:57:00,
2013-12-07 01:02:00,31.0,30.0,29.76,North,360,0.7,1.1,96,0.00,CLR,SCT,0.00,WeatherDisplay:10.37,2013-12-07 06:02:00,
2013-12-07 01:07:00,30.8,29.8,29.76,NW,323,4.2,5.8,96,0.00,CLR,SCT,0.00,WeatherDisplay:10.37,2013-12-07 06:07:00,
2013-12-07 01:12:00,30.8,29.8,29.76,NNW,344,5.4,6.9,96,0.00,CLR,SCT,0.00,WeatherDisplay:10.37,2013-12-07 06:12:00,
2013-12-07 01:17:00,30.8,29.8,29.76,NNW,342,0.7,4.6,96,0.00,CLR,SCT,0.00,WeatherDisplay:10.37,2013-12-07 06:17:00,
2013-12-07 01:22:00,30.8,29.8,29.76,NW,323,1.0,2.3,96,0.00,CLR,SCT,0.00,WeatherDisplay:10.37,2013-12-07 06:22:00,
2013-12-07 01:27:00,30.8,29.5,29.77,NNW,333,1.1,3.5,95,0.00,CLR,SCT,0.00,WeatherDisplay:10.37,2013-12-07 06:27:00,
2013-12-07 01:32:00,30.9,29.9,29.78,NW,317,1.0,2.3,96,0.00,CLR,SCT,0.00,WeatherDisplay:10.37,2013-12-07 06:32:00,
2013-12-07 01:37:00,30.9,29.9,29.78,NW,311,1.6,3.5,96,0.00,CLR,SCT,0.00,WeatherDisplay:10.37,2013-12-07 06:37:00,
2013-12-07 01:42:00,30.9,29.9,29.78,NNW,338,1.3,2.3,96,0.00,CLR,SCT,0.00,WeatherDisplay:10.37,2013-12-07 06:42:00,
2013-12-07 01:47:00,30.8,29.8,29.76,NW,321,1.1,2.3,96,0.00,CLR,SCT,0.00,WeatherDisplay:10.37,2013-12-07 06:47:00,
2013-12-07 01:52:00,30.7,29.7,29.76,NW,319,1.1,2.3,96,0.00,CLR,SCT,0.00,WeatherDisplay:10.37,2013-12-07 06:52:00,
2013-12-07 01:57:00,30.7,29.7,29.77,NW,306,1.8,4.6,96,0.00,CLR,SCT,0.00,WeatherDisplay:10.37,2013-12-07 06:57:00,
2013-12-07 02:02:00,30.6,29.6,29.77,NW,318,2.2,4.6,96,0.00,CLR,SCT,0.00,WeatherDisplay:10.37,2013-12-07 07:02:00,
2013-12-07 02:07:00,30.6,29.6,29.75,North,355,1.1,5.8,96,0.00,CLR,SCT,0.00,WeatherDisplay:10.37,2013-12-07 07:07:00,
2013-12-07 02:12:00,30.6,29.6,29.79,NW,306,2.0,3.5,96,0.00,CLR,SCT,0.00,WeatherDisplay:10.37,2013-12-07 07:12:00,
2013-12-07 02:17:00,30.6,29.6,29.79,NW,313,3.2,3.5,96,0.00,CLR,SCT,0.00,WeatherDisplay:10.37,2013-12-07 07:17:00,
2013-12-07 02:22:00,30.6,29.6,29.80,WNW,301,3.8,4.6,96,0.00,CLR,SCT,0.00,WeatherDisplay:10.37,2013-12-07 07:22:00,
2013-12-07 02:27:00,30.6,29.6,29.81,NW,319,2.5,4.6,96,0.00,CLR,SCT,0.00,WeatherDisplay:10.37,2013-12-07 07:27:00,
2013-12-07 02:32:00,30.5,29.5,29.81,WNW,285,1.9,3.5,96,0.00,CLR,SCT,0.00,WeatherDisplay:10.37,2013-12-07 07:32:00,
2013-12-07 02:37:00,30.6,29.6,29.81,NW,316,2.8,4.6,96,0.00,CLR,SCT,0.00,WeatherDisplay:10.37,2013-12-07 07:37:00,
2013-12-07 02:42:00,30.6,29.6,29.81,NW,310,3.5,8.1,96,0.00,CLR,SCT,0.00,WeatherDisplay:10.37,2013-12-07 07:42:00,
2013-12-07 02:47:00,30.6,29.6,29.80,NW,312,3.3,5.8,96,0.00,CLR,SCT,0.00,WeatherDisplay:10.37,2013-12-07 07:47:00,
2013-12-07 02:52:00,30.6,29.6,29.81,WNW,302,4.9,7.0,96,0.00,CLR,SCT,0.00,WeatherDisplay:10.37,2013-12-07 07:52:00,
2013-12-07 02:57:00,30.5,29.5,29.81,WNW,302,1.3,3.5,96,0.00,CLR,SCT,0.00,WeatherDisplay:10.37,2013-12-07 07:57:00,
2013-12-07 03:02:00,30.5,29.5,29.82,NW,315,1.6,2.3,96,0.00,CLR,SCT,0.00,WeatherDisplay:10.37,2013-12-07 08:02:00,
2013-12-07 03:07:00,30.6,29.6,29.82,NW,310,1.4,2.3,96,0.00,CLR,SCT,0.00,WeatherDisplay:10.37,2013-12-07 08:07:00,
2013-12-07 03:12:00,30.5,29.5,29.82,NW,313,1.5,3.5,96,0.00,CLR,SCT,0.00,WeatherDisplay:10.37,2013-12-07 08:12:00,
2013-12-07 03:17:00,30.5,29.5,29.82,NW,315,2.4,5.8,96,0.00,CLR,SCT,0.00,WeatherDisplay:10.37,2013-12-07 08:17:00,
2013-12-07 03:22:00,30.5,29.5,29.82,WNW,286,3.1,4.6,96,0.00,CLR,SCT,0.00,WeatherDisplay:10.37,2013-12-07 08:22:00,
2013-12-07 03:27:00,30.5,29.5,29.82,NW,314,2.2,3.5,96,0.00,CLR,SCT,0.00,WeatherDisplay:10.37,2013-12-07 08:27:00,
2013-12-07 03:32:00,30.4,29.4,29.82,WNW,296,2.3,4.6,96,0.00,CLR,SCT,0.00,WeatherDisplay:10.37,2013-12-07 08:32:00,
2013-12-07 03:37:00,30.4,29.4,29.82,NW,324,2.8,6.9,96,0.00,CLR,SCT,0.00,WeatherDisplay:10.37,2013-12-07 08:37:00,
2013-12-07 03:42:00,30.5,29.5,29.82,NNW,327,3.9,5.8,96,0.00,CLR,SCT,0.00,WeatherDisplay:10.37,2013-12-07 08:42:00,
2013-12-07 03:47:00,30.5,29.5,29.83,WNW,294,1.4,2.3,96,0.00,CLR,SCT,0.00,WeatherDisplay:10.37,2013-12-07 08:47:00,
2013-12-07 03:52:00,30.5,29.5,29.83,WNW,303,1.2,2.3,96,0.00,CLR,SCT,0.00,WeatherDisplay:10.37,2013-12-07 08:52:00,
2013-12-07 03:57:00,30.5,29.5,29.83,NNW,334,2.9,5.8,96,0.00,CLR,SCT,0.00,WeatherDisplay:10.37,2013-12-07 08:57:00,
2013-12-07 04:02:00,30.5,29.5,29.83,NW,306,2.5,3.5,96,0.00,CLR,SCT,0.00,WeatherDisplay:10.37,2013-12-07 09:02:00,
2013-12-07 04:07:00,30.5,29.5,29.83,NNW,328,0.9,3.5,96,0.00,CLR,SCT,0.00,WeatherDisplay:10.37,2013-12-07 09:07:00,
2013-12-07 04:12:00,30.5,29.5,29.83,NNW,329,2.0,3.5,96,0.00,CLR,SCT,0.00,WeatherDisplay:10.37,2013-12-07 09:12:00,
2013-12-07 04:17:00,30.4,29.4,29.83,NW,306,4.3,5.8,96,0.00,CLR,SCT,0.00,WeatherDisplay:10.37,2013-12-07 09:17:00,
2013-12-07 04:22:00,30.4,29.4,29.83,NNE,12,1.1,3.5,96,0.00,CLR,SCT,0.00,WeatherDisplay:10.37,2013-12-07 09:22:00,
2013-12-07 04:27:00,30.5,29.5,29.82,NW,319,1.9,3.5,96,0.00,CLR,SCT,0.00,WeatherDisplay:10.37,2013-12-07 09:27:00,
2013-12-07 04:32:00,30.5,29.5,29.83,NNE,15,5.0,8.1,96,0.00,CLR,SCT,0.00,WeatherDisplay:10.37,2013-12-07 09:32:00,
2013-12-07 04:37:00,30.5,29.2,29.83,North,355,3.0,5.0,95,0.00,CLR,SCT,0.00,WeatherDisplay:10.37,2013-12-07 09:37:00,
2013-12-07 04:42:00,30.5,29.2,29.83,North,360,1.9,5.0,95,0.00,CLR,SCT,0.00,WeatherDisplay:10.37,2013-12-07 09:42:00,
2013-12-07 04:47:00,30.5,29.2,29.83,West,259,3.2,8.1,95,0.00,CLR,SCT,0.00,WeatherDisplay:10.37,2013-12-07 09:47:00,
2013-12-07 04:52:00,30.6,29.1,29.83,WNW,295,3.8,5.8,94,0.00,CLR,SCT,0.00,WeatherDisplay:10.37,2013-12-07 09:52:00,
2013-12-07 04:57:00,30.6,29.1,29.83,NW,315,1.6,5.0,94,0.00,CLR,SCT,0.00,WeatherDisplay:10.37,2013-12-07 09:57:00,
2013-12-07 05:02:00,30.6,29.1,29.83,NNW,332,1.4,4.0,94,0.00,CLR,SCT,0.00,WeatherDisplay:10.37,2013-12-07 10:02:00,
2013-12-07 05:07:00,30.6,29.1,29.84,NW,326,1.6,3.5,94,0.00,CLR,SCT,0.00,WeatherDisplay:10.37,2013-12-07 10:07:00,
2013-12-07 05:12:00,30.6,29.1,29.85,NW,317,4.5,10.4,94,0.00,CLR,SCT,0.00,WeatherDisplay:10.37,2013-12-07 10:12:00,
2013-12-07 05:17:00,30.6,29.1,29.84,NW,320,1.7,3.5,94,0.00,CLR,SCT,0.00,WeatherDisplay:10.37,2013-12-07 10:17:00,
2013-12-07 05:22:00,30.6,28.8,29.85,NW,326,4.6,8.1,93,0.00,CLR,SCT,0.00,WeatherDisplay:10.37,2013-12-07 10:22:00,
2013-12-07 05:27:00,30.7,28.9,29.84,NNW,329,4.1,4.6,93,0.00,CLR,SCT,0.00,WeatherDisplay:10.37,2013-12-07 10:27:00,
2013-12-07 05:32:00,30.7,28.9,29.85,SSE,161,3.9,8.1,93,0.00,CLR,SCT,0.00,WeatherDisplay:10.37,2013-12-07 10:32:00,
2013-12-07 05:37:00,30.7,28.9,29.85,NNW,344,4.0,6.9,93,0.00,CLR,SCT,0.00,WeatherDisplay:10.37,2013-12-07 10:37:00,
2013-12-07 05:42:00,30.7,28.9,29.85,NNW,341,1.8,3.5,93,0.00,CLR,SCT,0.00,WeatherDisplay:10.37,2013-12-07 10:42:00,
2013-12-07 05:47:00,30.8,29.0,29.85,NW,317,1.0,3.0,93,0.00,CLR,SCT,0.00,WeatherDisplay:10.37,2013-12-07 10:47:00,
2013-12-07 05:52:00,30.7,28.9,29.86,NNW,336,1.0,2.3,93,0.00,CLR,SCT,0.00,WeatherDisplay:10.37,2013-12-07 10:52:00,
2013-12-07 05:57:00,30.7,28.9,29.86,NNW,336,4.1,6.9,93,0.00,CLR,SCT,0.00,WeatherDisplay:10.37,2013-12-07 10:57:00,
2013-12-07 06:02:00,30.7,28.9,29.86,WNW,284,2.9,5.8,93,0.00,CLR,SCT,0.00,WeatherDisplay:10.37,2013-12-07 11:02:00,
2013-12-07 06:07:00,30.7,28.7,29.87,North,5,1.6,5.0,92,0.00,CLR,SCT,0.00,WeatherDisplay:10.37,2013-12-07 11:07:00,
2013-12-07 06:12:00,30.7,28.7,29.87,WNW,292,4.4,6.9,92,0.00,CLR,SCT,0.00,WeatherDisplay:10.37,2013-12-07 11:12:00,
2013-12-07 06:17:00,30.7,28.7,29.87,NNW,338,1.3,4.0,92,0.00,CLR,SCT,0.00,WeatherDisplay:10.37,2013-12-07 11:17:00,
2013-12-07 06:22:00,30.7,28.4,29.87,NW,315,2.3,3.5,91,0.00,CLR,SCT,0.00,WeatherDisplay:10.37,2013-12-07 11:22:00,
2013-12-07 06:27:00,30.6,28.3,29.86,NW,325,3.8,4.6,91,0.00,CLR,SCT,0.00,WeatherDisplay:10.37,2013-12-07 11:27:00,
2013-12-07 06:32:00,30.6,28.3,29.86,NW,323,3.2,6.9,91,0.00,CLR,SCT,0.00,WeatherDisplay:10.37,2013-12-07 11:32:00,
2013-12-07 06:37:00,30.6,28.3,29.87,NW,311,5.9,8.1,91,0.00,CLR,SCT,0.00,WeatherDisplay:10.37,2013-12-07 11:37:00,
2013-12-07 06:42:00,30.7,28.1,29.88,North,355,2.7,4.6,90,0.00,CLR,SCT,0.00,WeatherDisplay:10.37,2013-12-07 11:42:00,
2013-12-07 06:47:00,30.6,28.0,29.89,NW,312,1.1,3.5,90,0.00,CLR,SCT,0.00,WeatherDisplay:10.37,2013-12-07 11:47:00,
2013-12-07 06:52:00,30.5,27.9,29.88,WNW,302,1.0,3.5,90,0.00,CLR,SCT,0.00,WeatherDisplay:10.37,2013-12-07 11:52:00,
2013-12-07 06:57:00,30.4,28.1,29.89,West,281,0.4,1.1,91,0.00,CLR,SCT,0.00,WeatherDisplay:10.37,2013-12-07 11:57:00,
2013-12-07 07:02:00,30.3,28.0,29.89,NW,322,0.0,1.1,91,0.00,CLR,SCT,0.00,WeatherDisplay:10.37,2013-12-07 12:02:00,
2013-12-07 07:07:00,30.2,28.2,29.89,NW,322,0.3,1.1,92,0.00,CLR,SCT,0.00,WeatherDisplay:10.37,2013-12-07 12:07:00,
2013-12-07 07:12:00,30.2,28.2,29.89,NW,320,0.8,2.3,92,0.00,CLR,SCT,0.00,WeatherDisplay:10.37,2013-12-07 12:12:00,
2013-12-07 07:17:00,30.2,28.2,29.90,WNW,285,1.1,2.3,92,0.00,CLR,SCT,0.00,WeatherDisplay:10.37,2013-12-07 12:17:00,
2013-12-07 07:22:00,30.3,28.3,29.90,NW,325,1.1,4.6,92,0.00,CLR,SCT,0.00,WeatherDisplay:10.37,2013-12-07 12:22:00,
2013-12-07 07:27:00,30.3,28.3,29.90,NW,320,1.1,2.3,92,0.00,CLR,SCT,0.00,WeatherDisplay:10.37,2013-12-07 12:27:00,
2013-12-07 07:32:00,30.2,27.9,29.90,NW,325,1.8,4.0,91,0.00,CLR,SCT,0.00,WeatherDisplay:10.37,2013-12-07 12:32:00,
2013-12-07 07:37:00,30.3,28.0,29.90,NW,314,1.2,2.3,91,0.00,CLR,SCT,0.00,WeatherDisplay:10.37,2013-12-07 12:37:00,
2013-12-07 07:42:00,30.3,28.0,29.90,NNW,329,1.2,3.5,91,0.00,CLR,SCT,0.00,WeatherDisplay:10.37,2013-12-07 12:42:00,
2013-12-07 07:47:00,30.3,28.0,29.90,NW,317,2.9,4.6,91,0.00,CLR,SCT,0.00,WeatherDisplay:10.37,2013-12-07 12:47:00,
2013-12-07 07:52:00,30.3,28.0,29.91,NNW,339,0.9,2.3,91,0.00,CLR,SCT,0.00,WeatherDisplay:10.37,2013-12-07 12:52:00,
2013-12-07 07:57:00,30.2,27.9,29.91,NNW,331,1.4,3.5,91,0.00,CLR,SCT,0.00,WeatherDisplay:10.37,2013-12-07 12:57:00,
2013-12-07 08:02:00,30.3,28.0,29.91,NNW,333,1.8,3.5,91,0.00,CLR,SCT,0.00,WeatherDisplay:10.37,2013-12-07 13:02:00,
2013-12-07 08:07:00,30.3,28.0,29.92,NNW,329,3.1,4.6,91,0.00,CLR,SCT,0.00,WeatherDisplay:10.37,2013-12-07 13:07:00,
2013-12-07 08:12:00,30.5,28.2,29.92,NW,317,4.0,6.9,91,0.00,CLR,SCT,0.00,WeatherDisplay:10.37,2013-12-07 13:12:00,
2013-12-07 08:17:00,30.5,27.9,29.92,WNW,295,2.6,5.8,90,0.00,CLR,SCT,0.00,WeatherDisplay:10.37,2013-12-07 13:17:00,
2013-12-07 08:22:00,30.5,27.9,29.92,WNW,294,3.0,4.6,90,0.00,CLR,SCT,0.00,WeatherDisplay:10.37,2013-12-07 13:22:00,
2013-12-07 08:27:00,30.6,28.0,29.92,NNW,344,2.9,5.8,90,0.00,CLR,SCT,0.00,WeatherDisplay:10.37,2013-12-07 13:27:00,
2013-12-07 08:32:00,30.7,28.1,29.93,NW,314,0.7,3.5,90,0.00,CLR,SCT,0.00,WeatherDisplay:10.37,2013-12-07 13:32:00,
2013-12-07 08:37:00,30.7,28.4,29.93,NW,322,3.4,6.9,91,0.00,CLR,SCT,0.00,WeatherDisplay:10.37,2013-12-07 13:37:00,
2013-12-07 08:42:00,30.7,28.1,29.93,NNW,336,2.1,4.0,90,0.00,CLR,SCT,0.00,WeatherDisplay:10.37,2013-12-07 13:42:00,
2013-12-07 08:47:00,30.8,28.2,29.94,NNW,341,1.2,2.3,90,0.00,CLR,SCT,0.00,WeatherDisplay:10.37,2013-12-07 13:47:00,
2013-12-07 08:52:00,30.8,28.5,29.94,NNW,336,1.4,4.6,91,0.00,CLR,SCT,0.00,WeatherDisplay:10.37,2013-12-07 13:52:00,
2013-12-07 08:57:00,30.8,28.5,29.94,WNW,298,3.2,5.8,91,0.00,CLR,SCT,0.00,WeatherDisplay:10.37,2013-12-07 13:57:00,
2013-12-07 09:02:00,31.0,28.1,29.94,WNW,284,3.2,4.6,89,0.00,CLR,SCT,0.00,WeatherDisplay:10.37,2013-12-07 14:02:00,
2013-12-07 09:07:00,31.1,28.5,29.94,WNW,290,0.9,4.0,90,0.00,CLR,SCT,0.00,WeatherDisplay:10.37,2013-12-07 14:07:00,
2013-12-07 09:12:00,31.2,28.3,29.95,WNW,295,2.7,4.6,89,0.00,CLR,SCT,0.00,WeatherDisplay:10.37,2013-12-07 14:12:00,
2013-12-07 09:17:00,31.3,28.2,29.95,NNW,336,5.5,6.9,88,0.00,CLR,SCT,0.00,WeatherDisplay:10.37,2013-12-07 14:17:00,
2013-12-07 09:22:00,31.5,28.4,29.95,NW,312,3.8,6.9,88,0.00,CLR,SCT,0.00,WeatherDisplay:10.37,2013-12-07 14:22:00,
2013-12-07 09:27:00,31.4,28.3,29.95,West,279,4.7,6.0,88,0.00,CLR,SCT,0.00,WeatherDisplay:10.37,2013-12-07 14:27:00,
2013-12-07 09:32:00,31.4,28.3,29.95,NW,309,4.2,5.8,88,0.00,CLR,SCT,0.00,WeatherDisplay:10.37,2013-12-07 14:32:00,
2013-12-07 09:37:00,31.5,28.4,29.95,WNW,282,0.5,2.3,88,0.00,CLR,SCT,0.00,WeatherDisplay:10.37,2013-12-07 14:37:00,
2013-12-07 09:42:00,31.4,28.5,29.96,WNW,303,2.8,4.6,89,0.00,CLR,SCT,0.00,WeatherDisplay:10.37,2013-12-07 14:42:00,
2013-12-07 09:47:00,31.4,28.5,29.96,NW,323,2.7,4.6,89,0.00,CLR,SCT,0.00,WeatherDisplay:10.37,2013-12-07 14:47:00,
2013-12-07 09:52:00,31.4,28.3,29.96,NNW,330,2.9,4.6,88,0.00,CLR,SCT,0.00,WeatherDisplay:10.37,2013-12-07 14:52:00,
2013-12-07 09:57:00,31.5,28.6,29.96,WNW,302,2.6,3.5,89,0.00,CLR,SCT,0.00,WeatherDisplay:10.37,2013-12-07 14:57:00,
2013-12-07 10:02:00,31.5,28.4,29.97,NW,309,3.4,4.6,88,0.00,CLR,SCT,0.00,WeatherDisplay:10.37,2013-12-07 15:02:00,
2013-12-07 10:07:00,31.5,28.6,29.96,NW,323,3.1,4.6,89,0.00,CLR,SCT,0.00,WeatherDisplay:10.37,2013-12-07 15:07:00,
2013-12-07 10:12:00,31.5,28.4,29.96,NW,321,3.1,7.0,88,0.00,CLR,SCT,0.00,WeatherDisplay:10.37,2013-12-07 15:12:00,
2013-12-07 10:17:00,31.5,28.6,29.96,NW,310,1.6,3.5,89,0.00,CLR,SCT,0.00,WeatherDisplay:10.37,2013-12-07 15:17:00,
2013-12-07 10:22:00,31.5,28.6,29.96,NW,321,1.9,3.5,89,0.00,CLR,SCT,0.00,WeatherDisplay:10.37,2013-12-07 15:22:00,
2013-12-07 10:27:00,31.5,28.6,29.97,NW,312,5.4,8.1,89,0.00,CLR,SCT,0.00,WeatherDisplay:10.37,2013-12-07 15:27:00,
2013-12-07 10:32:00,31.5,28.4,29.97,NNE,17,2.1,6.0,88,0.00,CLR,SCT,0.00,WeatherDisplay:10.37,2013-12-07 15:32:00,
2013-12-07 10:37:00,31.5,28.6,29.97,NNW,330,5.8,9.2,89,0.00,CLR,SCT,0.00,WeatherDisplay:10.37,2013-12-07 15:37:00,
2013-12-07 10:42:00,31.6,28.7,29.97,ENE,63,2.6,4.6,89,0.00,CLR,SCT,0.00,WeatherDisplay:10.37,2013-12-07 15:42:00,
2013-12-07 10:47:00,31.7,28.8,29.97,NW,321,1.7,3.5,89,0.00,CLR,SCT,0.00,WeatherDisplay:10.37,2013-12-07 15:47:00,
2013-12-07 10:52:00,31.8,28.9,29.97,WNW,299,3.4,5.8,89,0.00,CLR,SCT,0.00,WeatherDisplay:10.37,2013-12-07 15:52:00,
2013-12-07 10:57:00,31.9,29.0,29.97,NW,309,3.6,4.6,89,0.00,CLR,SCT,0.00,WeatherDisplay:10.37,2013-12-07 15:57:00,
2013-12-07 11:02:00,31.9,29.0,29.96,NNW,336,5.6,6.9,89,0.00,CLR,SCT,0.00,WeatherDisplay:10.37,2013-12-07 16:02:00,
2013-12-07 11:07:00,31.8,28.7,29.97,NNW,340,5.2,9.2,88,0.00,CLR,SCT,0.00,WeatherDisplay:10.37,2013-12-07 16:07:00,
2013-12-07 11:12:00,31.8,28.7,29.96,NW,313,4.3,6.9,88,0.00,CLR,SCT,0.00,WeatherDisplay:10.37,2013-12-07 16:12:00,
2013-12-07 11:17:00,31.9,28.8,29.96,WNW,296,3.1,4.6,88,0.00,CLR,SCT,0.00,WeatherDisplay:10.37,2013-12-07 16:17:00,
2013-12-07 11:22:00,31.9,28.8,29.97,NNW,348,1.6,2.3,88,0.00,CLR,SCT,0.00,WeatherDisplay:10.37,2013-12-07 16:22:00,
2013-12-07 11:27:00,32.0,29.1,29.97,WNW,302,3.2,6.9,89,0.00,CLR,SCT,0.00,WeatherDisplay:10.37,2013-12-07 16:27:00,
2013-12-07 11:32:00,31.9,28.8,29.96,WNW,299,2.1,4.6,88,0.00,CLR,SCT,0.00,WeatherDisplay:10.37,2013-12-07 16:32:00,
2013-12-07 11:37:00,31.9,28.5,29.96,NW,315,2.9,4.6,87,0.00,CLR,SCT,0.00,WeatherDisplay:10.37,2013-12-07 16:37:00,
2013-12-07 11:42:00,31.9,28.5,29.96,WNW,302,2.3,3.5,87,0.00,CLR,SCT,0.00,WeatherDisplay:10.37,2013-12-07 16:42:00,
2013-12-07 11:47:00,31.9,28.5,29.97,WNW,286,1.8,3.5,87,0.00,CLR,SCT,0.00,WeatherDisplay:10.37,2013-12-07 16:47:00,
2013-12-07 11:52:00,31.9,28.2,29.96,NNW,339,1.7,2.3,86,0.00,CLR,SCT,0.00,WeatherDisplay:10.37,2013-12-07 16:52:00,
2013-12-07 11:57:00,32.0,28.8,29.96,West,278,2.2,3.5,88,0.00,CLR,SCT,0.00,WeatherDisplay:10.37,2013-12-07 16:57:00,
2013-12-07 12:02:00,32.0,28.6,29.97,NW,316,1.5,4.6,87,0.00,CLR,SCT,0.00,WeatherDisplay:10.37,2013-12-07 17:02:00,
2013-12-07 12:07:00,32.0,28.3,29.96,NNW,344,0.7,2.3,86,0.00,CLR,SCT,0.00,WeatherDisplay:10.37,2013-12-07 17:07:00,
2013-12-07 12:12:00,32.1,28.4,29.96,NW,306,3.5,5.8,86,0.00,CLR,SCT,0.00,WeatherDisplay:10.37,2013-12-07 17:12:00,
2013-12-07 12:17:00,32.2,28.2,29.96,NW,304,2.6,5.8,85,0.00,CLR,SCT,0.00,WeatherDisplay:10.37,2013-12-07 17:17:00,
2013-12-07 12:22:00,32.1,27.8,29.96,WNW,292,1.5,3.5,84,0.00,CLR,SCT,0.00,WeatherDisplay:10.37,2013-12-07 17:22:00,
2013-12-07 12:27:00,32.1,27.8,29.96,NNW,331,1.5,5.0,84,0.00,CLR,SCT,0.00,WeatherDisplay:10.37,2013-12-07 17:27:00,
2013-12-07 12:32:00,32.2,27.6,29.96,WNW,294,3.2,4.6,83,0.00,CLR,SCT,0.00,WeatherDisplay:10.37,2013-12-07 17:32:00,
2013-12-07 12:37:00,32.3,28.0,29.97,NNW,338,2.2,6.0,84,0.00,CLR,SCT,0.00,WeatherDisplay:10.37,2013-12-07 17:37:00,
2013-12-07 12:42:00,32.2,27.3,29.97,NW,306,2.2,4.6,82,0.00,CLR,SCT,0.00,WeatherDisplay:10.37,2013-12-07 17:42:00,
2013-12-07 12:47:00,32.6,28.3,29.97,WNW,285,2.4,5.8,84,0.00,CLR,SCT,0.00,WeatherDisplay:10.37,2013-12-07 17:47:00,
2013-12-07 12:52:00,32.6,28.0,29.97,South,188,1.6,2.3,83,0.00,CLR,SCT,0.00,WeatherDisplay:10.37,2013-12-07 17:52:00,
2013-12-07 12:57:00,32.6,28.3,29.97,NW,304,2.0,6.0,84,0.00,CLR,SCT,0.00,WeatherDisplay:10.37,2013-12-07 17:57:00,
2013-12-07 13:02:00,32.5,27.9,29.97,West,281,3.8,6.9,83,0.00,CLR,SCT,0.00,WeatherDisplay:10.37,2013-12-07 18:02:00,
2013-12-07 13:07:00,32.4,27.8,29.97,WNW,285,2.5,4.6,83,0.00,CLR,SCT,0.00,WeatherDisplay:10.37,2013-12-07 18:07:00,
2013-12-07 13:12:00,32.4,27.8,29.96,WNW,298,1.9,3.5,83,0.00,CLR,SCT,0.00,WeatherDisplay:10.37,2013-12-07 18:12:00,
2013-12-07 13:17:00,32.6,28.0,29.96,West,264,1.4,2.3,83,0.00,CLR,SCT,0.00,WeatherDisplay:10.37,2013-12-07 18:17:00,
2013-12-07 13:22:00,33.1,28.8,29.96,North,355,1.9,4.6,84,0.00,CLR,SCT,0.00,WeatherDisplay:10.37,2013-12-07 18:22:00,
2013-12-07 13:27:00,33.2,27.4,29.96,NW,313,1.4,3.0,79,0.00,CLR,SCT,0.00,WeatherDisplay:10.37,2013-12-07 18:27:00,
2013-12-07 13:32:00,33.2,28.0,29.96,WNW,286,2.6,4.6,81,0.00,CLR,SCT,0.00,WeatherDisplay:10.37,2013-12-07 18:32:00,
2013-12-07 13:37:00,33.1,27.6,29.96,NNW,333,1.5,3.5,80,0.00,CLR,SCT,0.00,WeatherDisplay:10.37,2013-12-07 18:37:00,
2013-12-07 13:42:00,32.9,28.0,29.96,NW,311,3.0,3.5,82,0.00,CLR,SCT,0.00,WeatherDisplay:10.37,2013-12-07 18:42:00,
2013-12-07 13:47:00,32.7,26.6,29.96,NE,35,1.5,4.6,78,0.00,CLR,SCT,0.00,WeatherDisplay:10.37,2013-12-07 18:47:00,
2013-12-07 13:52:00,32.6,27.1,29.96,NW,326,1.8,3.5,80,0.00,CLR,SCT,0.00,WeatherDisplay:10.37,2013-12-07 18:52:00,
2013-12-07 13:57:00,32.7,26.0,29.96,North,360,3.0,5.8,76,0.00,CLR,SCT,0.00,WeatherDisplay:10.37,2013-12-07 18:57:00,
2013-12-07 14:02:00,33.2,26.8,29.96,NW,307,1.3,2.3,77,0.00,CLR,SCT,0.00,WeatherDisplay:10.37,2013-12-07 19:02:00,
2013-12-07 14:07:00,33.5,27.1,29.96,NW,322,3.0,5.8,77,0.00,CLR,SCT,0.00,WeatherDisplay:10.37,2013-12-07 19:07:00,
2013-12-07 14:12:00,33.7,27.3,29.96,WNW,288,1.7,2.3,77,0.00,CLR,SCT,0.00,WeatherDisplay:10.37,2013-12-07 19:12:00,
2013-12-07 14:17:00,34.2,27.7,29.96,NW,311,1.5,4.0,77,0.00,CLR,SCT,0.00,WeatherDisplay:10.37,2013-12-07 19:17:00,
2013-12-07 14:22:00,34.4,27.3,29.96,West,274,3.9,5.8,75,0.00,CLR,SCT,0.00,WeatherDisplay:10.37,2013-12-07 19:22:00,
2013-12-07 14:27:00,34.5,27.4,29.96,WNW,290,3.5,6.9,75,0.00,CLR,SCT,0.00,WeatherDisplay:10.37,2013-12-07 19:27:00,
2013-12-07 14:32:00,34.6,27.2,29.97,NNW,336,4.3,9.2,74,0.00,CLR,SCT,0.00,WeatherDisplay:10.37,2013-12-07 19:32:00,
2013-12-07 14:37:00,34.3,28.2,29.97,NW,316,2.3,3.5,78,0.00,CLR,SCT,0.00,WeatherDisplay:10.37,2013-12-07 19:37:00,
2013-12-07 14:42:00,33.7,26.3,29.97,NNW,346,5.7,10.4,74,0.00,CLR,SCT,0.00,WeatherDisplay:10.37,2013-12-07 19:42:00,
2013-12-07 14:47:00,33.3,26.5,29.97,ENE,57,3.3,4.6,76,0.00,CLR,SCT,0.00,WeatherDisplay:10.37,2013-12-07 19:47:00,
2013-12-07 14:52:00,33.0,26.3,29.97,NNW,331,1.5,6.0,76,0.00,CLR,SCT,0.00,WeatherDisplay:10.37,2013-12-07 19:52:00,
2013-12-07 14:57:00,32.8,26.1,29.97,West,281,2.7,3.5,76,0.00,CLR,SCT,0.00,WeatherDisplay:10.37,2013-12-07 19:57:00,
2013-12-07 15:02:00,32.6,25.9,29.97,NNW,340,4.1,9.2,76,0.00,CLR,SCT,0.00,WeatherDisplay:10.37,2013-12-07 20:02:00,
2013-12-07 15:07:00,32.5,25.8,29.98,NNW,332,4.9,8.1,76,0.00,CLR,SCT,0.00,WeatherDisplay:10.37,2013-12-07 20:07:00,
2013-12-07 15:12:00,32.4,26.0,29.98,NNW,334,1.2,2.3,77,0.00,CLR,SCT,0.00,WeatherDisplay:10.37,2013-12-07 20:12:00,
2013-12-07 15:17:00,32.3,26.2,29.98,NW,317,1.0,2.3,78,0.00,CLR,SCT,0.00,WeatherDisplay:10.37,2013-12-07 20:17:00,
2013-12-07 15:22:00,32.3,26.2,29.99,NNW,336,1.8,3.5,78,0.00,CLR,SCT,0.00,WeatherDisplay:10.37,2013-12-07 20:22:00,
2013-12-07 15:27:00,32.2,26.4,29.99,NNW,330,2.9,3.5,79,0.00,CLR,SCT,0.00,WeatherDisplay:10.37,2013-12-07 20:27:00,
2013-12-07 15:32:00,32.1,26.3,29.99,NW,313,2.9,5.8,79,0.00,CLR,SCT,0.00,WeatherDisplay:10.37,2013-12-07 20:32:00,
2013-12-07 15:37:00,32.1,26.3,29.99,NW,318,3.8,5.0,79,0.00,CLR,SCT,0.00,WeatherDisplay:10.37,2013-12-07 20:37:00,
2013-12-07 15:42:00,32.1,26.3,30.00,NNE,16,2.2,3.5,79,0.00,CLR,SCT,0.00,WeatherDisplay:10.37,2013-12-07 20:42:00,
2013-12-07 15:47:00,32.1,26.3,30.00,NNW,327,3.7,6.9,79,0.00,CLR,SCT,0.00,WeatherDisplay:10.37,2013-12-07 20:47:00,
2013-12-07 15:52:00,32.1,26.3,30.00,NW,309,4.6,5.8,79,0.00,CLR,SCT,0.00,WeatherDisplay:10.37,2013-12-07 20:52:00,
2013-12-07 15:57:00,32.1,26.3,30.00,NNW,336,3.5,4.6,79,0.00,CLR,SCT,0.00,WeatherDisplay:10.37,2013-12-07 20:57:00,
2013-12-07 16:02:00,32.0,25.9,30.00,NNW,336,3.1,4.6,78,0.00,CLR,SCT,0.00,WeatherDisplay:10.37,2013-12-07 21:02:00,
2013-12-07 16:07:00,32.0,25.9,30.01,NW,324,2.8,4.6,78,0.00,CLR,SCT,0.00,WeatherDisplay:10.37,2013-12-07 21:07:00,
2013-12-07 16:12:00,31.9,25.5,30.01,NW,313,1.8,4.6,77,0.00,CLR,SCT,0.00,WeatherDisplay:10.37,2013-12-07 21:12:00,
2013-12-07 16:17:00,31.9,25.8,30.01,NNW,338,0.9,2.3,78,0.00,CLR,SCT,0.00,WeatherDisplay:10.37,2013-12-07 21:17:00,
2013-12-07 16:22:00,31.7,25.6,30.01,NNW,338,0.8,2.3,78,0.00,CLR,SCT,0.00,WeatherDisplay:10.37,2013-12-07 21:22:00,
2013-12-07 16:27:00,31.5,25.4,30.01,NNW,331,1.5,3.5,78,0.00,CLR,SCT,0.00,WeatherDisplay:10.37,2013-12-07 21:27:00,
2013-12-07 16:32:00,31.4,25.6,30.01,NNW,348,1.2,3.5,79,0.00,CLR,SCT,0.00,WeatherDisplay:10.37,2013-12-07 21:32:00,
2013-12-07 16:37:00,31.1,25.3,30.02,NW,325,1.2,3.5,79,0.00,CLR,SCT,0.00,WeatherDisplay:10.37,2013-12-07 21:37:00,
2013-12-07 16:42:00,30.9,24.8,30.02,NNW,338,1.4,2.3,78,0.00,CLR,SCT,0.00,WeatherDisplay:10.37,2013-12-07 21:42:00,
2013-12-07 16:47:00,30.8,25.1,30.02,NNW,348,2.4,4.6,79,0.00,CLR,SCT,0.00,WeatherDisplay:10.37,2013-12-07 21:47:00,
2013-12-07 16:52:00,30.8,25.1,30.02,North,10,0.9,2.3,79,0.00,CLR,SCT,0.00,WeatherDisplay:10.37,2013-12-07 21:52:00,
2013-12-07 16:57:00,30.6,24.9,30.03,NW,324,1.6,2.3,79,0.00,CLR,SCT,0.00,WeatherDisplay:10.37,2013-12-07 21:57:00,
2013-12-07 17:02:00,30.5,25.1,30.03,NW,324,0.5,2.0,80,0.00,CLR,SCT,0.00,WeatherDisplay:10.37,2013-12-07 22:02:00,
2013-12-07 17:07:00,30.3,24.9,30.03,NW,315,2.1,4.6,80,0.00,CLR,SCT,0.00,WeatherDisplay:10.37,2013-12-07 22:07:00,
2013-12-07 17:12:00,30.2,24.8,30.03,NNW,336,1.1,2.3,80,0.00,CLR,SCT,0.00,WeatherDisplay:10.37,2013-12-07 22:12:00,
2013-12-07 17:17:00,30.1,25.0,30.03,NW,315,1.5,3.5,81,0.00,CLR,SCT,0.00,WeatherDisplay:10.37,2013-12-07 22:17:00,
2013-12-07 17:22:00,29.9,24.8,30.04,NW,322,3.5,5.8,81,0.00,CLR,SCT,0.00,WeatherDisplay:10.37,2013-12-07 22:22:00,
2013-12-07 17:27:00,29.9,25.1,30.04,NW,323,0.8,2.3,82,0.00,CLR,SCT,0.00,WeatherDisplay:10.37,2013-12-07 22:27:00,
2013-12-07 17:32:00,29.7,24.9,30.04,NW,323,0.1,2.0,82,0.00,CLR,SCT,0.00,WeatherDisplay:10.37,2013-12-07 22:32:00,
2013-12-07 17:37:00,29.5,24.4,30.04,NNW,338,0.7,2.3,81,0.00,CLR,SCT,0.00,WeatherDisplay:10.37,2013-12-07 22:37:00,
2013-12-07 17:42:00,29.4,23.7,30.05,NW,320,0.3,1.1,79,0.00,CLR,SCT,0.00,WeatherDisplay:10.37,2013-12-07 22:42:00,
2013-12-07 17:47:00,29.4,23.7,30.05,NW,321,0.3,2.3,79,0.00,CLR,SCT,0.00,WeatherDisplay:10.37,2013-12-07 22:47:00,
2013-12-07 17:52:00,29.3,23.3,30.05,North,351,0.9,2.3,78,0.00,CLR,SCT,0.00,WeatherDisplay:10.37,2013-12-07 22:52:00,
2013-12-07 17:57:00,29.3,23.6,30.05,North,355,1.3,4.6,79,0.00,CLR,SCT,0.00,WeatherDisplay:10.37,2013-12-07 22:57:00,
2013-12-07 18:02:00,29.2,23.5,30.05,NW,317,2.4,4.0,79,0.00,CLR,SCT,0.00,WeatherDisplay:10.37,2013-12-07 23:02:00,
2013-12-07 18:07:00,29.2,23.2,30.06,NNW,335,1.9,4.0,78,0.00,CLR,SCT,0.00,WeatherDisplay:10.37,2013-12-07 23:07:00,
2013-12-07 18:12:00,29.2,22.9,30.06,NNW,330,2.7,4.6,77,0.00,CLR,SCT,0.00,WeatherDisplay:10.37,2013-12-07 23:12:00,
2013-12-07 18:17:00,29.1,22.5,30.07,NNW,340,2.1,4.6,76,0.00,CLR,SCT,0.00,WeatherDisplay:10.37,2013-12-07 23:17:00,
2013-12-07 18:22:00,29.0,22.1,30.07,NNW,344,1.4,4.0,75,0.00,CLR,SCT,0.00,WeatherDisplay:10.37,2013-12-07 23:22:00,
2013-12-07 18:27:00,28.9,22.0,30.07,NNW,342,3.0,4.6,75,0.00,CLR,SCT,0.00,WeatherDisplay:10.37,2013-12-07 23:27:00,
2013-12-07 18:32:00,28.8,22.2,30.08,NW,321,3.3,4.6,76,0.00,CLR,SCT,0.00,WeatherDisplay:10.37,2013-12-07 23:32:00,
2013-12-07 18:37:00,28.7,22.1,30.08,North,355,1.6,4.0,76,0.00,CLR,SCT,0.00,WeatherDisplay:10.37,2013-12-07 23:37:00,
2013-12-07 18:42:00,28.6,21.7,30.08,NNE,24,2.7,5.0,75,0.00,CLR,SCT,0.00,WeatherDisplay:10.37,2013-12-07 23:42:00,
2013-12-07 18:47:00,28.6,21.7,30.08,NNW,348,1.6,2.3,75,0.00,CLR,SCT,0.00,WeatherDisplay:10.37,2013-12-07 23:47:00,
2013-12-07 18:52:00,28.5,21.6,30.08,NNW,338,2.5,4.0,75,0.00,CLR,SCT,0.00,WeatherDisplay:10.37,2013-12-07 23:52:00,
2013-12-07 18:57:00,28.5,21.6,30.09,NNW,329,2.3,3.5,75,0.00,CLR,SCT,0.00,WeatherDisplay:10.37,2013-12-07 23:57:00,
2013-12-07 19:02:00,28.5,21.3,30.09,WNW,303,4.0,6.9,74,0.00,CLR,SCT,0.00,WeatherDisplay:10.37,2013-12-08 00:02:00,
2013-12-07 19:07:00,28.5,21.3,30.09,NW,317,4.7,6.9,74,0.00,CLR,SCT,0.00,WeatherDisplay:10.37,2013-12-08 00:07:00,
2013-12-07 19:12:00,28.5,20.9,30.09,WNW,300,3.9,8.1,73,0.00,CLR,SCT,0.00,WeatherDisplay:10.37,2013-12-08 00:12:00,
2013-12-07 19:17:00,28.4,21.2,30.09,WNW,301,3.8,5.8,74,0.00,CLR,SCT,0.00,WeatherDisplay:10.37,2013-12-08 00:17:00,
2013-12-07 19:22:00,28.3,21.1,30.10,NW,314,4.4,5.8,74,0.00,CLR,SCT,0.00,WeatherDisplay:10.37,2013-12-08 00:22:00,
2013-12-07 19:27:00,28.2,21.0,30.10,NNW,336,2.0,4.6,74,0.00,CLR,SCT,0.00,WeatherDisplay:10.37,2013-12-08 00:27:00,
2013-12-07 19:32:00,28.2,20.7,30.10,NW,314,2.7,5.8,73,0.00,CLR,SCT,0.00,WeatherDisplay:10.37,2013-12-08 00:32:00,
2013-12-07 19:37:00,28.1,20.9,30.10,NW,306,1.5,3.5,74,0.00,CLR,SCT,0.00,WeatherDisplay:10.37,2013-12-08 00:37:00,
2013-12-07 19:42:00,28.0,20.8,30.11,NNW,342,1.1,3.5,74,0.00,CLR,SCT,0.00,WeatherDisplay:10.37,2013-12-08 00:42:00,
2013-12-07 19:47:00,28.0,20.8,30.11,WNW,298,1.5,3.5,74,0.00,CLR,SCT,0.00,WeatherDisplay:10.37,2013-12-08 00:47:00,
2013-12-07 19:52:00,28.0,20.5,30.11,NW,306,4.1,6.9,73,0.00,CLR,SCT,0.00,WeatherDisplay:10.37,2013-12-08 00:52:00,
2013-12-07 19:57:00,27.9,20.4,30.12,WNW,296,3.6,6.0,73,0.00,CLR,SCT,0.00,WeatherDisplay:10.37,2013-12-08 00:57:00,
2013-12-07 20:02:00,27.9,20.4,30.12,NW,326,1.2,3.5,73,0.00,CLR,SCT,0.00,WeatherDisplay:10.37,2013-12-08 01:02:00,
2013-12-07 20:07:00,27.8,19.9,30.12,NW,309,3.6,5.8,72,0.00,CLR,SCT,0.00,WeatherDisplay:10.37,2013-12-08 01:07:00,
2013-12-07 20:12:00,27.8,19.9,30.12,NW,323,1.8,3.5,72,0.00,CLR,SCT,0.00,WeatherDisplay:10.37,2013-12-08 01:12:00,
2013-12-07 20:17:00,27.7,19.8,30.12,NW,321,4.6,8.1,72,0.00,CLR,SCT,0.00,WeatherDisplay:10.37,2013-12-08 01:17:00,
2013-12-07 20:22:00,27.7,19.5,30.12,NW,304,4.0,5.8,71,0.00,CLR,SCT,0.00,WeatherDisplay:10.37,2013-12-08 01:22:00,
2013-12-07 20:27:00,27.8,19.6,30.12,NW,309,3.0,5.0,71,0.00,CLR,SCT,0.00,WeatherDisplay:10.37,2013-12-08 01:27:00,
2013-12-07 20:32:00,27.8,19.6,30.12,NW,306,1.5,4.0,71,0.00,CLR,SCT,0.00,WeatherDisplay:10.37,2013-12-08 01:32:00,
2013-12-07 20:37:00,27.6,20.1,30.12,West,268,2.1,5.0,73,0.00,CLR,SCT,0.00,WeatherDisplay:10.37,2013-12-08 01:37:00,
2013-12-07 20:42:00,27.6,19.4,30.12,WNW,292,0.9,2.3,71,0.00,CLR,SCT,0.00,WeatherDisplay:10.37,2013-12-08 01:42:00,
2013-12-07 20:47:00,27.5,20.0,30.12,WNW,292,0.8,2.3,73,0.00,CLR,SCT,0.00,WeatherDisplay:10.37,2013-12-08 01:47:00,
2013-12-07 20:52:00,27.4,20.2,30.13,WNW,292,1.7,5.0,74,0.00,CLR,SCT,0.00,WeatherDisplay:10.37,2013-12-08 01:52:00,
2013-12-07 20:57:00,27.3,20.1,30.12,WNW,294,1.6,3.5,74,0.00,CLR,SCT,0.00,WeatherDisplay:10.37,2013-12-08 01:57:00,
2013-12-07 21:02:00,27.2,20.0,30.13,NW,325,1.5,2.3,74,0.00,CLR,SCT,0.00,WeatherDisplay:10.37,2013-12-08 02:02:00,
2013-12-07 21:07:00,27.1,19.9,30.13,NW,313,0.8,2.3,74,0.00,CLR,SCT,0.00,WeatherDisplay:10.37,2013-12-08 02:07:00,
2013-12-07 21:12:00,27.0,19.5,30.13,East,80,0.5,2.3,73,0.00,CLR,SCT,0.00,WeatherDisplay:10.37,2013-12-08 02:12:00,
2013-12-07 21:17:00,27.0,20.1,30.13,NW,305,0.2,1.1,75,0.00,CLR,SCT,0.00,WeatherDisplay:10.37,2013-12-08 02:17:00,
2013-12-07 21:22:00,26.9,20.0,30.14,NW,305,0.0,0.0,75,0.00,CLR,SCT,0.00,WeatherDisplay:10.37,2013-12-08 02:22:00,
2013-12-07 21:27:00,26.7,19.5,30.14,NW,304,1.1,3.5,74,0.00,CLR,SCT,0.00,WeatherDisplay:10.37,2013-12-08 02:27:00,
2013-12-07 21:32:00,26.7,19.8,30.14,NW,304,1.0,3.5,75,0.00,CLR,SCT,0.00,WeatherDisplay:10.37,2013-12-08 02:32:00,
2013-12-07 21:37:00,26.8,18.7,30.14,WNW,295,1.5,3.5,71,0.00,CLR,SCT,0.00,WeatherDisplay:10.37,2013-12-08 02:37:00,
2013-12-07 21:42:00,26.9,19.4,30.14,WNW,292,1.5,3.5,73,0.00,CLR,SCT,0.00,WeatherDisplay:10.37,2013-12-08 02:42:00,
2013-12-07 21:47:00,26.9,19.1,30.14,NW,308,0.6,1.1,72,0.00,CLR,SCT,0.00,WeatherDisplay:10.37,2013-12-08 02:47:00,
2013-12-07 21:52:00,26.7,18.9,30.14,NW,312,0.9,3.5,72,0.00,CLR,SCT,0.00,WeatherDisplay:10.37,2013-12-08 02:52:00,
2013-12-07 21:57:00,26.7,18.9,30.14,NW,312,0.1,1.1,72,0.00,CLR,SCT,0.00,WeatherDisplay:10.37,2013-12-08 02:57:00,
2013-12-07 22:02:00,26.6,18.8,30.14,NW,312,0.5,2.3,72,0.00,CLR,SCT,0.00,WeatherDisplay:10.37,2013-12-08 03:02:00,
2013-12-07 22:07:00,26.5,18.4,30.14,WNW,282,0.9,2.3,71,0.00,CLR,SCT,0.00,WeatherDisplay:10.37,2013-12-08 03:07:00,
2013-12-07 22:12:00,26.3,18.5,30.14,WNW,283,0.9,2.3,72,0.00,CLR,SCT,0.00,WeatherDisplay:10.37,2013-12-08 03:12:00,
2013-12-07 22:17:00,26.2,18.4,30.14,NW,306,1.8,4.0,72,0.00,CLR,SCT,0.00,WeatherDisplay:10.37,2013-12-08 03:17:00,
2013-12-07 22:22:00,26.3,18.5,30.14,NNW,327,1.7,2.3,72,0.00,CLR,SCT,0.00,WeatherDisplay:10.37,2013-12-08 03:22:00,
2013-12-07 22:27:00,26.2,19.4,30.14,NW,321,2.2,3.5,75,0.00,CLR,SCT,0.00,WeatherDisplay:10.37,2013-12-08 03:27:00,
2013-12-07 22:32:00,26.0,19.2,30.14,NNW,328,1.6,3.5,75,0.00,CLR,SCT,0.00,WeatherDisplay:10.37,2013-12-08 03:32:00,
2013-12-07 22:37:00,26.0,19.2,30.15,WNW,297,0.2,2.3,75,0.00,CLR,SCT,0.00,WeatherDisplay:10.37,2013-12-08 03:37:00,
2013-12-07 22:42:00,26.0,19.2,30.15,WSW,255,1.3,2.3,75,0.00,CLR,SCT,0.00,WeatherDisplay:10.37,2013-12-08 03:42:00,
2013-12-07 22:47:00,25.9,19.1,30.15,West,273,0.2,1.1,75,0.00,CLR,SCT,0.00,WeatherDisplay:10.37,2013-12-08 03:47:00,
2013-12-07 22:52:00,25.8,18.3,30.16,WNW,294,1.2,3.5,73,0.00,CLR,SCT,0.00,WeatherDisplay:10.37,2013-12-08 03:52:00,
2013-12-07 22:57:00,25.9,18.7,30.16,WSW,255,0.7,2.3,74,0.00,CLR,SCT,0.00,WeatherDisplay:10.37,2013-12-08 03:57:00,
2013-12-07 23:02:00,25.8,18.7,30.17,NW,323,1.0,2.3,74,0.00,CLR,SCT,0.00,WeatherDisplay:10.37,2013-12-08 04:02:00,
2013-12-07 23:07:00,25.7,18.2,30.17,NW,313,0.8,2.3,73,0.00,CLR,SCT,0.00,WeatherDisplay:10.37,2013-12-08 04:07:00,
2013-12-07 23:12:00,25.7,18.6,30.17,NW,314,0.2,1.1,74,0.00,CLR,SCT,0.00,WeatherDisplay:10.37,2013-12-08 04:12:00,
2013-12-07 23:17:00,25.6,17.8,30.17,North,360,0.0,0.0,72,0.00,CLR,SCT,0.00,WeatherDisplay:10.37,2013-12-08 04:17:00,
2013-12-07 23:22:00,25.6,17.5,30.17,North,355,0.2,1.1,71,0.00,CLR,SCT,0.00,WeatherDisplay:10.37,2013-12-08 04:22:00,
2013-12-07 23:27:00,25.6,17.8,30.17,North,355,1.0,3.5,72,0.00,CLR,SCT,0.00,WeatherDisplay:10.37,2013-12-08 04:27:00,
2013-12-07 23:32:00,25.6,17.8,30.17,North,355,0.9,3.0,72,0.00,CLR,SCT,0.00,WeatherDisplay:10.37,2013-12-08 04:32:00,
2013-12-07 23:37:00,25.5,18.0,30.18,North,355,0.6,2.3,73,0.00,CLR,SCT,0.00,WeatherDisplay:10.37,2013-12-08 04:37:00,
2013-12-07 23:42:00,25.4,17.9,30.18,North,355,0.4,1.1,73,0.00,CLR,SCT,0.00,WeatherDisplay:10.37,2013-12-08 04:42:00,
2013-12-07 23:47:00,25.3,17.9,30.18,North,355,0.5,1.1,73,0.00,CLR,SCT,0.00,WeatherDisplay:10.37,2013-12-08 04:47:00,
2013-12-07 23:52:00,25.2,18.1,30.18,NW,315,1.1,3.0,74,0.00,CLR,SCT,0.00,WeatherDisplay:10.37,2013-12-08 04:52:00,
2013-12-07 23:57:00,25.1,17.7,30.18,NW,315,0.8,2.3,73,0.00,CLR,SCT,0.00,WeatherDisplay:10.37,2013-12-08 04:57:00,